Time;durP1;ratioP1;P1;durP2;ratioP2;P2;SDS_P1;SDS_P2;PMS_P1;PMS_P2;Temp;Humidity;BMP_temperature;BMP_pressure;BME280_temperature;BME280_humidity;BME280_pressure;Samples;Min_cycle;Max_cycle;Signal;HPM_P1;HPM_P2
2023/03/23 00:01:21;;;;;;;;;;;;;;;11.29;61.69;95932.50;5035986;28;20373;-73
2023/03/23 00:03:49;;;;;;;;;;;;;;;11.27;61.58;95931.94;5035721;28;19948;-73
2023/03/23 00:06:19;;;;;;;;;;;;;;;11.26;61.61;95935.63;5035535;28;19950;-73
2023/03/23 00:08:46;;;;;;;;;;;;;;;11.23;61.72;95929.00;5035390;28;19947;-73
2023/03/23 00:11:14;;;;;;;;;;;;;;;11.21;61.60;95923.19;5035556;28;19963;-71
2023/03/23 00:13:41;;;;;;;;;;;;;;;11.21;62.15;95928.44;5035252;28;19955;-68
2023/03/23 00:16:16;;;;;;;;;;;;;;;11.20;62.20;95921.59;5035450;28;20317;-70
2023/03/23 00:18:47;;;;;;;;;;;;;;;11.19;62.87;95922.63;5035786;28;19938;-70
2023/03/23 00:21:13;;;;;;;;;;;;;;;11.18;62.41;95907.91;5035883;28;20056;-67
2023/03/23 00:23:39;;;;;;;;;;;;;;;11.16;62.47;95907.34;5034756;28;19938;-68
2023/03/23 00:26:06;;;;;;;;;;;;;;;11.15;62.97;95906.56;5035096;28;19951;-67
2023/03/23 00:28:32;;;;;;;;;;;;;;;11.15;63.17;95906.56;5035519;28;19943;-67
2023/03/23 00:31:02;;;;;;;;;;;;;;;11.14;62.56;95904.16;5035394;28;19947;-70
2023/03/23 00:33:30;;;;;;;;;;;;;;;11.14;63.10;95904.16;5034874;28;19983;-65
2023/03/23 00:35:56;;;;;;;;;;;;;;;11.12;63.45;95893.88;5034745;28;19960;-65
2023/03/23 00:38:22;;;;;;;;;;;;;;;11.11;63.72;95892.31;5034845;28;19932;-67
2023/03/23 00:40:48;;;;;;;;;;;;;;;11.11;63.72;95884.44;5034745;28;19941;-67
2023/03/23 00:43:16;;;;;;;;;;;;;;;11.10;63.94;95882.84;5035005;28;19999;-67
2023/03/23 00:45:44;;;;;;;;;;;;;;;11.09;64.33;95880.47;5034673;28;19952;-68
2023/03/23 00:48:12;;;;;;;;;;;;;;;11.08;64.00;95879.66;5034696;28;20303;-80
2023/03/23 00:50:38;;;;;;;;;;;;;;;11.08;64.27;95887.50;5034584;28;19939;-70
2023/03/23 00:53:04;;;;;;;;;;;;;;;11.08;63.65;95886.72;5034476;28;19943;-80
2023/03/23 00:55:30;;;;;;;;;;;;;;;11.05;62.60;95872.25;5034623;28;19947;-81
2023/03/23 00:57:56;;;;;;;;;;;;;;;11.03;62.06;95874.31;5034574;28;20393;-80
2023/03/23 01:00:23;;;;;;;;;;;;;;;10.99;62.48;95869.78;5034459;28;19941;-80
2023/03/23 01:02:51;;;;;;;;;;;;;;;10.99;62.66;95867.16;5034264;28;19982;-80
2023/03/23 01:05:17;;;;;;;;;;;;;;;10.98;63.10;95868.97;5034847;28;19970;-80
2023/03/23 01:07:44;;;;;;;;;;;;;;;10.96;63.32;95863.97;5034665;28;20262;-71
2023/03/23 01:10:12;;;;;;;;;;;;;;;10.96;63.50;95869.22;5035028;28;19947;-70
2023/03/23 01:12:38;;;;;;;;;;;;;;;10.95;63.32;95864.97;5034217;28;20006;-70
2023/03/23 01:15:05;;;;;;;;;;;;;;;10.92;63.13;95864.69;5035051;28;19960;-70
2023/03/23 01:17:31;;;;;;;;;;;;;;;10.89;63.62;95863.28;5034642;28;19949;-70
2023/03/23 01:19:57;;;;;;;;;;;;;;;10.90;63.89;95861.50;5034888;28;19952;-70
2023/03/23 01:22:23;;;;;;;;;;;;;;;10.88;63.85;95858.31;5034060;28;19945;-70
2023/03/23 01:24:49;;;;;;;;;;;;;;;10.88;64.33;95861.72;5033974;28;20006;-68
2023/03/23 01:27:15;;;;;;;;;;;;;;;10.88;64.27;95856.47;5034027;28;19947;-73
2023/03/23 01:29:41;;;;;;;;;;;;;;;10.88;64.34;95858.31;5034432;28;19946;-71
2023/03/23 01:32:07;;;;;;;;;;;;;;;10.88;64.60;95845.97;5034063;28;19991;-70
2023/03/23 01:34:32;;;;;;;;;;;;;;;10.86;64.68;95842.00;5034425;28;19956;-71
2023/03/23 01:36:58;;;;;;;;;;;;;;;10.86;64.54;95844.63;5033687;28;19954;-71
2023/03/23 01:39:24;;;;;;;;;;;;;;;10.84;64.63;95833.56;5033845;28;20058;-70
2023/03/23 01:41:50;;;;;;;;;;;;;;;10.82;64.57;95830.38;5034480;28;20306;-70
2023/03/23 01:44:16;;;;;;;;;;;;;;;10.82;64.73;95835.63;5034174;28;19941;-68
2023/03/23 01:46:42;;;;;;;;;;;;;;;10.82;64.63;95825.13;5033885;28;19942;-68
2023/03/23 01:49:16;;;;;;;;;;;;;;;10.79;65.30;95826.38;5033581;28;19951;-67
2023/03/23 01:51:48;;;;;;;;;;;;;;;10.81;65.54;95824.31;5033774;28;20010;-68
2023/03/23 01:54:19;;;;;;;;;;;;;;;10.81;65.95;95837.44;5033839;28;20047;-67
2023/03/23 01:56:47;;;;;;;;;;;;;;;10.80;66.32;95835.84;5033474;28;20313;-67
2023/03/23 01:59:13;;;;;;;;;;;;;;;10.80;66.41;95833.22;5033401;28;19950;-67
2023/03/23 02:01:44;;;;;;;;;;;;;;;10.74;65.33;95824.47;5033138;28;19945;-80
2023/03/23 02:04:13;;;;;;;;;;;;;;;10.73;65.70;95827.31;5034097;28;19948;-67
2023/03/23 02:06:39;;;;;;;;;;;;;;;10.72;65.45;95828.34;5034034;28;20311;-69
2023/03/23 02:09:06;;;;;;;;;;;;;;;10.72;66.45;95829.16;5033280;28;19937;-70
2023/03/23 02:11:32;;;;;;;;;;;;;;;10.73;65.86;95830.75;5033180;28;19948;-70
2023/03/23 02:13:58;;;;;;;;;;;;;;;10.74;65.62;95826.28;5033212;28;20359;-70
2023/03/23 02:16:23;;;;;;;;;;;;;;;10.76;65.77;95832.09;5033633;28;19954;-69
2023/03/23 02:19:08;;;;;;;;;;;;;;;10.76;65.71;95829.47;5033714;28;20251;-69
2023/03/23 02:21:56;;;;;;;;;;;;;;;10.75;65.83;95827.88;5034006;28;19943;-68
2023/03/23 02:24:37;;;;;;;;;;;;;;;10.75;65.59;95815.56;5033195;28;19950;-70
2023/03/23 02:27:06;;;;;;;;;;;;;;;10.77;65.58;95815.31;5033258;28;19945;-69
2023/03/23 02:29:35;;;;;;;;;;;;;;;10.76;65.66;95809.28;5033599;28;19966;-70
2023/03/23 02:32:19;;;;;;;;;;;;;;;10.77;65.39;95802.22;5033287;28;19940;-70
2023/03/23 02:34:48;;;;;;;;;;;;;;;10.76;65.82;95804.03;5033355;28;19995;-70
2023/03/23 02:37:33;;;;;;;;;;;;;;;10.73;65.49;95799.28;5032927;28;19954;-70
2023/03/23 02:40:11;;;;;;;;;;;;;;;10.70;65.99;95796.31;5033489;28;19947;-73
2023/03/23 02:42:37;;;;;;;;;;;;;;;10.63;66.25;95785.97;5034216;28;19945;-73
2023/03/23 02:45:05;;;;;;;;;;;;;;;10.56;66.76;95794.00;5033957;28;19945;-73
2023/03/23 02:47:31;;;;;;;;;;;;;;;10.52;66.46;95792.88;5033159;28;20280;-73
2023/03/23 02:49:58;;;;;;;;;;;;;;;10.52;67.17;95795.47;5033636;28;19953;-73
2023/03/23 02:52:27;;;;;;;;;;;;;;;10.51;66.95;95780.75;5033608;28;19939;-72
2023/03/23 02:54:54;;;;;;;;;;;;;;;10.51;67.06;95798.31;5033253;28;19965;-73
2023/03/23 02:57:21;;;;;;;;;;;;;;;10.51;67.86;95788.63;5032845;28;19944;-73
2023/03/23 02:59:47;;;;;;;;;;;;;;;10.53;67.10;95783.16;5033621;28;19942;-73
2023/03/23 03:02:32;;;;;;;;;;;;;;;10.53;66.93;95773.47;5032679;28;20003;-68
2023/03/23 03:05:09;;;;;;;;;;;;;;;10.53;67.46;95764.81;5032827;28;20315;-68
2023/03/23 03:07:37;;;;;;;;;;;;;;;10.50;67.58;95773.94;5033639;28;19942;-68
2023/03/23 03:10:06;;;;;;;;;;;;;;;10.50;67.56;95776.56;5032778;28;19952;-68
2023/03/23 03:12:45;;;;;;;;;;;;;;;10.50;67.77;95773.94;5032742;28;19939;-69
2023/03/23 03:15:11;;;;;;;;;;;;;;;10.52;67.94;95773.69;5032623;28;20403;-70
2023/03/23 03:17:40;;;;;;;;;;;;;;;10.52;68.56;95774.50;5032735;28;20040;-78
2023/03/23 03:20:09;;;;;;;;;;;;;;;10.51;67.62;95772.13;5033186;28;19940;-73
2023/03/23 03:22:37;;;;;;;;;;;;;;;10.47;67.81;95766.53;5032544;28;19941;-73
2023/03/23 03:25:04;;;;;;;;;;;;;;;10.45;68.03;95760.72;5033489;28;19945;-73
2023/03/23 03:27:31;;;;;;;;;;;;;;;10.45;68.04;95765.19;5033093;28;20275;-73
2023/03/23 03:29:59;;;;;;;;;;;;;;;10.45;67.67;95771.22;5034862;28;19939;-73
2023/03/23 03:32:31;;;;;;;;;;;;;;;10.47;68.10;95761.28;5036461;28;20292;-73
2023/03/23 03:35:02;;;;;;;;;;;;;;;10.48;67.86;95765.53;5036080;28;19972;-67
2023/03/23 03:37:33;;;;;;;;;;;;;;;10.50;67.95;95763.47;5035981;28;20326;-69
2023/03/23 03:39:59;;;;;;;;;;;;;;;10.51;68.51;95772.91;5035976;28;19944;-67
2023/03/23 03:42:25;;;;;;;;;;;;;;;10.55;67.52;95774.03;5036217;28;19943;-68
2023/03/23 03:44:50;;;;;;;;;;;;;;;10.58;68.47;95778.00;5036324;28;20002;-68
2023/03/23 03:47:16;;;;;;;;;;;;;;;10.57;68.38;95768.56;5035824;28;19940;-68
2023/03/23 03:49:42;;;;;;;;;;;;;;;10.57;68.54;95766.72;5036361;28;20462;-68
2023/03/23 03:52:08;;;;;;;;;;;;;;;10.57;68.29;95763.31;5035781;28;19942;-70
2023/03/23 03:54:34;;;;;;;;;;;;;;;10.56;68.59;95764.34;5036332;28;19956;-80
2023/03/23 03:57:00;;;;;;;;;;;;;;;10.57;68.21;95764.09;5035655;28;19943;-69
2023/03/23 03:59:26;;;;;;;;;;;;;;;10.57;68.12;95761.47;5035585;28;19941;-70
2023/03/23 04:01:54;;;;;;;;;;;;;;;10.59;68.27;95760.47;5035942;28;19971;-70
2023/03/23 04:04:21;;;;;;;;;;;;;;;10.58;68.53;95759.66;5035434;28;20397;-70
2023/03/23 04:06:48;;;;;;;;;;;;;;;10.57;69.51;95758.06;5035908;28;19951;-70
2023/03/23 04:09:14;;;;;;;;;;;;;;;10.56;68.72;95757.28;5035352;28;19944;-70
2023/03/23 04:11:40;;;;;;;;;;;;;;;10.58;69.19;95772.75;5036094;28;20404;-69
2023/03/23 04:14:06;;;;;;;;;;;;;;;10.60;69.46;95764.66;5035357;28;19966;-70
2023/03/23 04:16:34;;;;;;;;;;;;;;;10.60;68.77;95769.91;5035841;28;19946;-70
2023/03/23 04:19:00;;;;;;;;;;;;;;;10.60;69.07;95760.22;5035749;28;19952;-70
2023/03/23 04:21:28;;;;;;;;;;;;;;;10.61;69.41;95769.69;5035358;28;19944;-70
2023/03/23 04:24:00;;;;;;;;;;;;;;;10.62;69.59;95766.03;5035920;28;19941;-70
2023/03/23 04:26:28;;;;;;;;;;;;;;;10.62;69.66;95760.78;5035040;28;20074;-70
2023/03/23 04:28:55;;;;;;;;;;;;;;;10.64;69.80;95771.03;5035029;28;19943;-68
2023/03/23 04:31:24;;;;;;;;;;;;;;;10.63;70.57;95767.63;5035109;28;19946;-73
2023/03/23 04:33:52;;;;;;;;;;;;;;;10.61;70.45;95763.66;5034801;28;19937;-68
2023/03/23 04:36:19;;;;;;;;;;;;;;;10.58;70.21;95764.91;5034837;28;20325;-69
2023/03/23 04:38:45;;;;;;;;;;;;;;;10.53;70.47;95760.34;5035252;28;19940;-68
2023/03/23 04:41:11;;;;;;;;;;;;;;;10.50;70.37;95765.28;5034396;28;19940;-68
2023/03/23 04:43:41;;;;;;;;;;;;;;;10.45;70.54;95767.81;5035444;28;19987;-67
2023/03/23 04:46:08;;;;;;;;;;;;;;;10.41;70.77;95766.69;5035012;28;20291;-67
2023/03/23 04:48:34;;;;;;;;;;;;;;;10.39;71.13;95769.53;5034654;28;20377;-70
2023/03/23 04:51:02;;;;;;;;;;;;;;;10.39;71.63;95776.59;5034949;28;19938;-71
2023/03/23 04:53:28;;;;;;;;;;;;;;;10.40;70.86;95771.13;5034551;28;19948;-70
2023/03/23 04:55:54;;;;;;;;;;;;;;;10.41;71.55;95777.94;5035252;28;19963;-70
2023/03/23 04:58:21;;;;;;;;;;;;;;;10.40;71.71;95776.38;5034462;28;19940;-70
2023/03/23 05:00:49;;;;;;;;;;;;;;;10.39;71.72;95777.38;5034551;28;19941;-70
2023/03/23 05:03:19;;;;;;;;;;;;;;;10.40;72.58;95781.63;5034223;28;20046;-71
2023/03/23 05:05:51;;;;;;;;;;;;;;;10.41;72.12;95777.16;5034867;28;20318;-68
2023/03/23 05:08:20;;;;;;;;;;;;;;;10.41;71.74;95775.31;5034369;28;19939;-71
2023/03/23 05:10:50;;;;;;;;;;;;;;;10.40;73.03;95778.19;5034514;28;19944;-73
2023/03/23 05:13:15;;;;;;;;;;;;;;;10.39;72.89;95776.59;5034152;28;20342;-73
2023/03/23 05:15:41;;;;;;;;;;;;;;;10.36;71.51;95770.78;5034356;28;19964;-73
2023/03/23 05:18:09;;;;;;;;;;;;;;;10.37;71.42;95766.34;5034133;28;19935;-73
2023/03/23 05:20:35;;;;;;;;;;;;;;;10.37;72.22;95771.56;5034124;28;19941;-73
2023/03/23 05:23:00;;;;;;;;;;;;;;;10.36;71.94;95773.41;5034048;28;19943;-73
2023/03/23 05:25:26;;;;;;;;;;;;;;;10.39;72.52;95760.88;5034002;28;19961;-73
2023/03/23 05:27:53;;;;;;;;;;;;;;;10.39;72.42;95756.41;5034015;28;20393;-73
2023/03/23 05:30:20;;;;;;;;;;;;;;;10.41;71.67;95766.69;5034665;28;20298;-74
2023/03/23 05:32:50;;;;;;;;;;;;;;;10.41;71.67;95761.44;5034364;28;19940;-73
2023/03/23 05:35:17;;;;;;;;;;;;;;;10.41;71.79;95756.19;5033776;28;20426;-73
2023/03/23 05:37:43;;;;;;;;;;;;;;;10.43;72.75;95764.63;5034194;28;19963;-74
2023/03/23 05:40:09;;;;;;;;;;;;;;;10.43;71.08;95760.16;5034698;28;19943;-73
2023/03/23 05:42:35;;;;;;;;;;;;;;;10.42;73.26;95768.28;5033964;28;20400;-73
2023/03/23 05:45:02;;;;;;;;;;;;;;;10.40;72.74;95758.03;5034281;28;19945;-71
2023/03/23 05:47:28;;;;;;;;;;;;;;;10.43;73.71;95769.88;5034323;28;20378;-73
2023/03/23 05:49:54;;;;;;;;;;;;;;;10.46;72.37;95764.16;5033645;28;19947;-73
2023/03/23 05:52:20;;;;;;;;;;;;;;;10.54;73.12;95766.38;5033167;28;19946;-73
2023/03/23 05:54:46;;;;;;;;;;;;;;;10.64;72.38;95771.03;5032400;28;19965;-73
2023/03/23 05:57:12;;;;;;;;;;;;;;;10.72;70.93;95765.41;5033495;28;19947;-73
2023/03/23 05:59:38;;;;;;;;;;;;;;;10.79;71.19;95778.38;5034246;28;19931;-73
2023/03/23 06:02:05;;;;;;;;;;;;;;;10.86;71.13;95777.22;5033312;28;20008;-66
2023/03/23 06:04:33;;;;;;;;;;;;;;;10.94;70.63;95778.63;5033760;28;19939;-81
2023/03/23 06:07:00;;;;;;;;;;;;;;;10.99;70.62;95778.75;5033219;28;19934;-81
2023/03/23 06:09:26;;;;;;;;;;;;;;;11.06;70.69;95784.63;5033666;28;20286;-81
2023/03/23 06:11:52;;;;;;;;;;;;;;;11.08;70.60;95790.44;5033076;28;19942;-80
2023/03/23 06:14:18;;;;;;;;;;;;;;;11.11;70.41;95792.59;5033067;28;19966;-81
2023/03/23 06:16:43;;;;;;;;;;;;;;;11.13;71.46;95803.66;5033824;28;19965;-81
2023/03/23 06:19:10;;;;;;;;;;;;;;;11.13;70.55;95798.41;5034331;28;19937;-74
2023/03/23 06:21:37;;;;;;;;;;;;;;;11.16;70.66;95802.38;5033769;28;20342;-67
2023/03/23 06:24:03;;;;;;;;;;;;;;;11.18;70.83;95798.47;5033637;28;20346;-71
2023/03/23 06:26:34;;;;;;;;;;;;;;;11.20;71.21;95811.38;5032953;28;19934;-70
2023/03/23 06:29:00;;;;;;;;;;;;;;;11.22;70.60;95814.56;5033634;28;19939;-71
2023/03/23 06:31:27;;;;;;;;;;;;;;;11.24;69.96;95812.50;5033626;28;20030;-71
2023/03/23 06:33:52;;;;;;;;;;;;;;;11.26;69.88;95809.63;5032854;28;19942;-70
2023/03/23 06:36:18;;;;;;;;;;;;;;;11.31;69.68;95814.94;5032969;28;19965;-70
2023/03/23 06:38:44;;;;;;;;;;;;;;;11.32;70.14;95819.19;5033211;28;20309;-68
2023/03/23 06:41:11;;;;;;;;;;;;;;;11.35;69.58;95809.00;5033631;28;19946;-68
2023/03/23 06:43:39;;;;;;;;;;;;;;;11.41;69.80;95822.22;5033521;28;20307;-68
2023/03/23 06:46:05;;;;;;;;;;;;;;;11.46;69.69;95811.78;5033505;28;19939;-68
2023/03/23 06:48:31;;;;;;;;;;;;;;;11.51;69.68;95822.38;5032515;28;20425;-68
2023/03/23 06:50:57;;;;;;;;;;;;;;;11.58;69.08;95825.63;5033528;28;20382;-68
2023/03/23 06:53:23;;;;;;;;;;;;;;;11.64;68.52;95821.25;5033505;28;19944;-68
2023/03/23 06:55:50;;;;;;;;;;;;;;;11.70;67.92;95820.31;5033517;28;20365;-68
2023/03/23 06:58:16;;;;;;;;;;;;;;;11.75;68.14;95826.41;5033509;28;19941;-72
2023/03/23 07:00:42;;;;;;;;;;;;;;;11.80;68.82;95833.59;5034264;28;20355;-70
2023/03/23 07:03:08;;;;;;;;;;;;;;;11.83;68.04;95819.97;5033175;28;19984;-70
2023/03/23 07:05:34;;;;;;;;;;;;;;;11.85;67.25;95811.84;5036065;28;19953;-70
2023/03/23 07:08:04;;;;;;;;;;;;;;;11.88;67.33;95824.50;5037233;28;19936;-70
2023/03/23 07:10:30;;;;;;;;;;;;;;;11.89;67.44;95819.03;5037116;28;19946;-70
2023/03/23 07:12:56;;;;;;;;;;;;;;;11.90;67.28;95825.84;5037095;28;19941;-70
2023/03/23 07:15:22;;;;;;;;;;;;;;;11.90;67.98;95836.38;5037062;28;19960;-73
2023/03/23 07:17:48;;;;;;;;;;;;;;;11.91;67.52;95840.59;5036113;28;19948;-68
2023/03/23 07:20:14;;;;;;;;;;;;;;;11.92;68.21;95836.94;5036942;28;19944;-68
2023/03/23 07:22:40;;;;;;;;;;;;;;;11.91;68.09;95843.22;5036922;28;19941;-68
2023/03/23 07:25:07;;;;;;;;;;;;;;;11.90;68.52;95849.50;5037671;28;19938;-68
2023/03/23 07:27:33;;;;;;;;;;;;;;;11.90;68.82;95862.66;5036782;28;20341;-69
2023/03/23 07:29:59;;;;;;;;;;;;;;;11.90;69.08;95870.53;5036796;28;20280;-68
2023/03/23 07:32:25;;;;;;;;;;;;;;;11.91;68.89;95873.97;5036715;28;19936;-68
2023/03/23 07:34:51;;;;;;;;;;;;;;;11.93;69.34;95874.53;5036651;28;19955;-71
2023/03/23 07:37:17;;;;;;;;;;;;;;;11.95;68.71;95880.34;5037463;28;19960;-80
2023/03/23 07:39:43;;;;;;;;;;;;;;;11.98;68.31;95864.09;5036571;28;19948;-81
2023/03/23 07:42:09;;;;;;;;;;;;;;;12.03;68.57;95872.03;5036586;28;20288;-80
2023/03/23 07:44:35;;;;;;;;;;;;;;;12.08;68.85;95874.75;5036538;28;19935;-80
2023/03/23 07:47:01;;;;;;;;;;;;;;;12.16;69.10;95873.56;5036933;28;19986;-81
2023/03/23 07:49:27;;;;;;;;;;;;;;;12.23;69.00;95876.00;5036903;28;19965;-81
2023/03/23 07:51:53;;;;;;;;;;;;;;;12.30;69.27;95874.78;5036385;28;20519;-73
2023/03/23 07:54:19;;;;;;;;;;;;;;;12.38;68.39;95860.41;5036447;28;19948;-69
2023/03/23 07:56:45;;;;;;;;;;;;;;;12.46;68.63;95867.88;5036196;28;19970;-71
2023/03/23 07:59:12;;;;;;;;;;;;;;;12.50;69.50;95871.63;5036229;28;19944;-71
2023/03/23 08:01:38;;;;;;;;;;;;;;;12.55;68.44;95866.41;5036056;28;20416;-71
2023/03/23 08:04:05;;;;;;;;;;;;;;;12.61;68.56;95877.81;5036156;28;19960;-70
2023/03/23 08:06:34;;;;;;;;;;;;;;;12.68;68.08;95877.63;5036142;28;19938;-70
2023/03/23 08:09:02;;;;;;;;;;;;;;;12.75;67.58;95863.25;5036262;28;19946;-70
2023/03/23 08:11:28;;;;;;;;;;;;;;;12.85;67.83;95870.47;5036297;28;19948;-73
2023/03/23 08:13:54;;;;;;;;;;;;;;;12.92;68.01;95875.53;5036919;28;20352;-71
2023/03/23 08:16:20;;;;;;;;;;;;;;;12.99;68.28;95876.13;5035693;28;20315;-70
2023/03/23 08:18:46;;;;;;;;;;;;;;;13.06;67.40;95883.84;5035849;28;19947;-70
2023/03/23 08:21:12;;;;;;;;;;;;;;;13.13;67.67;95879.19;5036098;28;19944;-70
2023/03/23 08:23:38;;;;;;;;;;;;;;;13.19;67.89;95891.38;5036792;28;19950;-70
2023/03/23 08:26:07;;;;;;;;;;;;;;;13.23;69.22;95897.72;5035716;28;19996;-70
2023/03/23 08:28:34;;;;;;;;;;;;;;;13.28;69.53;95905.66;5035708;28;19946;-69
2023/03/23 08:31:00;;;;;;;;;;;;;;;13.31;68.13;95896.50;5036570;28;19939;-70
2023/03/23 08:33:27;;;;;;;;;;;;;;;13.32;68.69;95901.53;5035691;28;19939;-73
2023/03/23 08:35:54;;;;;;;;;;;;;;;13.35;68.78;95903.66;5035962;28;19965;-72
2023/03/23 08:38:21;;;;;;;;;;;;;;;13.38;69.60;95905.81;5035470;28;19946;-72
2023/03/23 08:40:47;;;;;;;;;;;;;;;13.41;68.66;95896.59;5035465;28;19967;-73
2023/03/23 08:43:13;;;;;;;;;;;;;;;13.46;68.95;95907.19;5035661;28;19942;-73
2023/03/23 08:45:39;;;;;;;;;;;;;;;13.49;68.65;95906.69;5035477;28;19963;-73
2023/03/23 08:48:07;;;;;;;;;;;;;;;13.51;68.42;95911.72;5035402;28;19946;-69
2023/03/23 08:50:33;;;;;;;;;;;;;;;13.52;68.25;95921.19;5035616;28;20391;-69
2023/03/23 08:52:59;;;;;;;;;;;;;;;13.55;68.51;95931.25;5035239;28;20312;-68
2023/03/23 08:55:26;;;;;;;;;;;;;;;13.56;68.96;95928.34;5035167;28;19960;-68
2023/03/23 08:57:52;;;;;;;;;;;;;;;13.57;69.72;95939.69;5035950;28;19939;-68
2023/03/23 09:00:19;;;;;;;;;;;;;;;13.58;69.05;95928.09;5035119;28;19963;-67
2023/03/23 09:02:47;;;;;;;;;;;;;;;13.56;69.59;95936.25;5034950;28;19990;-68
2023/03/23 09:05:14;;;;;;;;;;;;;;;13.58;69.67;95936.78;5035049;28;19944;-73
2023/03/23 09:07:41;;;;;;;;;;;;;;;13.60;69.22;95934.72;5035789;28;20294;-72
2023/03/23 09:10:07;;;;;;;;;;;;;;;13.60;69.77;95937.34;5034897;28;19935;-73
2023/03/23 09:12:33;;;;;;;;;;;;;;;13.60;69.83;95936.56;5035951;28;19948;-75
2023/03/23 09:15:03;;;;;;;;;;;;;;;13.66;69.46;95929.50;5034770;28;20309;-74
2023/03/23 09:17:28;;;;;;;;;;;;;;;13.71;69.03;95930.34;5035332;28;19948;-73
2023/03/23 09:19:55;;;;;;;;;;;;;;;13.75;70.04;95935.91;5035758;28;20314;-73
2023/03/23 09:22:23;;;;;;;;;;;;;;;13.82;69.22;95947.03;5033532;28;19944;-73
2023/03/23 09:24:49;;;;;;;;;;;;;;;13.86;69.31;95947.31;5035201;28;19945;-68
2023/03/23 09:27:16;;;;;;;;;;;;;;;13.85;69.50;95959.72;5033957;28;20420;-71
2023/03/23 09:29:41;;;;;;;;;;;;;;;13.86;69.72;95971.84;5035371;28;19945;-71
2023/03/23 09:32:07;;;;;;;;;;;;;;;13.85;69.77;95970.25;5034481;28;20398;-71
2023/03/23 09:34:35;;;;;;;;;;;;;;;13.81;70.31;95977.06;5034422;28;19946;-73
2023/03/23 09:37:04;;;;;;;;;;;;;;;13.80;70.14;95981.56;5034547;28;20412;-71
2023/03/23 09:39:30;;;;;;;;;;;;;;;13.78;69.52;95980.22;5034328;28;19938;-71
2023/03/23 09:42:14;;;;;;;;;;;;;;;13.74;69.55;95979.91;5034317;28;19976;-70
2023/03/23 09:44:51;;;;;;;;;;;;;;;13.74;69.84;95987.03;5034309;28;19939;-73
2023/03/23 09:47:26;;;;;;;;;;;;;;;13.78;70.02;95982.84;5034648;28;19935;-73
2023/03/23 09:49:58;;;;;;;;;;;;;;;13.84;69.99;95971.31;5035315;28;19946;-73
2023/03/23 09:52:32;;;;;;;;;;;;;;;13.88;70.01;95964.50;5034248;28;20311;-73
2023/03/23 09:54:58;;;;;;;;;;;;;;;13.94;68.69;95966.13;5034186;28;20299;-73
2023/03/23 09:57:39;;;;;;;;;;;;;;;13.94;68.84;95965.31;5034365;28;19943;-73
2023/03/23 10:00:09;;;;;;;;;;;;;;;14.02;69.08;95964.88;5034160;28;19951;-67
2023/03/23 10:02:35;;;;;;;;;;;;;;;14.09;68.96;95962.00;5033900;28;20428;-80
2023/03/23 10:05:16;;;;;;;;;;;;;;;14.17;69.30;95954.44;5034528;28;19949;-73
2023/03/23 10:07:42;;;;;;;;;;;;;;;14.26;69.12;95959.22;5033991;28;20301;-73
2023/03/23 10:10:12;;;;;;;;;;;;;;;14.31;69.19;95962.72;5033893;28;19951;-73
2023/03/23 10:12:40;;;;;;;;;;;;;;;14.44;68.59;95955.41;5033855;28;19938;-73
2023/03/23 10:15:13;;;;;;;;;;;;;;;14.57;68.44;95953.16;5034589;28;19941;-73
2023/03/23 10:17:45;;;;;;;;;;;;;;;14.73;67.71;95947.97;5034656;28;19947;-73
2023/03/23 10:20:11;;;;;;;;;;;;;;;14.83;67.07;95942.75;5033835;28;19937;-72
2023/03/23 10:22:58;;;;;;;;;;;;;;;14.87;67.56;95961.50;5034423;28;20269;-72
2023/03/23 10:25:27;;;;;;;;;;;;;;;14.93;66.26;95953.34;5034471;28;20369;-72
2023/03/23 10:28:08;;;;;;;;;;;;;;;14.98;66.55;95958.63;5034190;28;19944;-71
2023/03/23 10:30:39;;;;;;;;;;;;;;;15.00;66.04;95958.38;5033654;28;19947;-71
2023/03/23 10:33:24;;;;;;;;;;;;;;;14.97;65.98;95951.78;5033644;28;19943;-71
2023/03/23 10:36:00;;;;;;;;;;;;;;;14.90;65.77;95956.50;5033740;28;19966;-71
2023/03/23 10:38:33;;;;;;;;;;;;;;;14.85;65.52;95963.59;5033926;28;19946;-81
2023/03/23 10:41:01;;;;;;;;;;;;;;;14.82;66.59;95954.34;5037027;28;19951;-73
2023/03/23 10:43:27;;;;;;;;;;;;;;;14.85;66.46;95960.97;5037878;28;19944;-73
2023/03/23 10:45:59;;;;;;;;;;;;;;;14.88;67.16;95966.50;5037607;28;19957;-73
2023/03/23 10:48:30;;;;;;;;;;;;;;;14.98;67.63;95961.28;5037618;28;20325;-73
2023/03/23 10:50:58;;;;;;;;;;;;;;;15.06;66.74;95960.00;5038043;28;19940;-73
2023/03/23 10:53:35;;;;;;;;;;;;;;;15.10;66.18;95963.72;5037576;28;20344;-74
2023/03/23 10:56:01;;;;;;;;;;;;;;;15.09;65.84;95953.41;5037389;28;19963;-68
2023/03/23 10:58:29;;;;;;;;;;;;;;;15.09;66.17;95958.69;5037416;28;20296;-68
2023/03/23 11:00:55;;;;;;;;;;;;;;;15.12;66.27;95960.78;5037355;28;19948;-71
2023/03/23 11:03:35;;;;;;;;;;;;;;;15.13;65.96;95965.03;5037076;28;20439;-71
2023/03/23 11:06:03;;;;;;;;;;;;;;;15.12;64.68;95969.53;5037812;28;19955;-71
2023/03/23 11:08:33;;;;;;;;;;;;;;;15.07;63.82;95953.66;5037226;28;19961;-72
2023/03/23 11:11:09;;;;;;;;;;;;;;;15.00;64.86;95955.75;5037659;28;19948;-71
2023/03/23 11:13:38;;;;;;;;;;;;;;;14.98;67.00;95963.91;5037992;28;19943;-72
2023/03/23 11:16:05;;;;;;;;;;;;;;;14.95;68.33;95967.09;5037021;28;19966;-72
2023/03/23 11:18:35;;;;;;;;;;;;;;;14.96;67.76;95949.41;5036994;28;19952;-71
2023/03/23 11:21:03;;;;;;;;;;;;;;;15.05;67.66;95949.69;5036960;28;19947;-71
2023/03/23 11:23:29;;;;;;;;;;;;;;;15.16;67.60;95946.84;5036904;28;20388;-70
2023/03/23 11:25:57;;;;;;;;;;;;;;;15.28;66.49;95940.53;5036869;28;19948;-70
2023/03/23 11:28:27;;;;;;;;;;;;;;;15.39;65.73;95936.84;5037409;28;20273;-70
2023/03/23 11:30:55;;;;;;;;;;;;;;;15.45;65.93;95932.38;5037580;28;19944;-71
2023/03/23 11:33:21;;;;;;;;;;;;;;;15.50;65.49;95929.75;5036397;28;19937;-71
2023/03/23 11:35:47;;;;;;;;;;;;;;;15.53;64.51;95921.28;5036563;28;19954;-69
2023/03/23 11:38:16;;;;;;;;;;;;;;;15.57;64.23;95928.44;5036601;28;20423;-68
2023/03/23 11:40:50;;;;;;;;;;;;;;;15.62;63.69;95917.88;5037554;28;19947;-69
2023/03/23 11:43:21;;;;;;;;;;;;;;;15.67;62.49;95908.38;5036576;28;20396;-68
2023/03/23 11:46:10;;;;;;;;;;;;;;;15.61;62.96;95921.56;5037271;28;19943;-68
2023/03/23 11:48:36;;;;;;;;;;;;;;;15.62;62.76;95923.16;5036486;28;19946;-69
2023/03/23 11:51:05;;;;;;;;;;;;;;;15.62;62.67;95922.34;5036144;28;19946;-80
2023/03/23 11:53:37;;;;;;;;;;;;;;;15.63;62.41;95908.88;5037003;28;19941;-71
2023/03/23 11:56:06;;;;;;;;;;;;;;;15.67;62.66;95908.38;5036262;28;19962;-71
2023/03/23 11:58:32;;;;;;;;;;;;;;;15.67;62.22;95901.22;5035100;28;20406;-71
2023/03/23 12:01:04;;;;;;;;;;;;;;;15.71;61.87;95901.50;5036238;28;20326;-72
2023/03/23 12:03:49;;;;;;;;;;;;;;;15.65;60.28;95889.34;5035283;28;19975;-72
2023/03/23 12:06:28;;;;;;;;;;;;;;;15.63;61.28;95906.25;5036933;28;20390;-71
2023/03/23 12:09:12;;;;;;;;;;;;;;;15.66;60.89;95894.34;5036371;28;19945;-71
2023/03/23 12:11:53;;;;;;;;;;;;;;;15.65;59.23;95890.13;5036685;28;19966;-80
2023/03/23 12:14:24;;;;;;;;;;;;;;;15.67;59.85;95895.16;5036000;28;19949;-72
2023/03/23 12:16:56;;;;;;;;;;;;;;;15.71;59.10;95896.22;5036900;28;19954;-73
2023/03/23 12:19:34;;;;;;;;;;;;;;;15.71;58.83;95896.22;5035893;28;19945;-73
2023/03/23 12:22:18;;;;;;;;;;;;;;;15.75;57.49;95892.81;5036394;28;19939;-73
2023/03/23 12:24:44;;;;;;;;;;;;;;;15.78;57.54;95888.84;5035748;28;19948;-73
2023/03/23 12:27:26;;;;;;;;;;;;;;;15.78;57.85;95894.91;5036899;28;19941;-73
2023/03/23 12:30:01;;;;;;;;;;;;;;;15.76;58.01;95883.81;5036153;28;19935;-73
2023/03/23 12:32:33;;;;;;;;;;;;;;;15.80;57.71;95887.50;5035984;28;19943;-70
2023/03/23 12:35:00;;;;;;;;;;;;;;;15.94;58.00;95884.34;5036385;28;19946;-70
2023/03/23 12:37:35;;;;;;;;;;;;;;;16.02;57.13;95887.25;5035589;28;19968;-71
2023/03/23 12:40:08;;;;;;;;;;;;;;;16.09;56.58;95886.19;5036356;28;19998;-70
2023/03/23 12:43:00;;;;;;;;;;;;;;;16.13;56.50;95884.59;5036037;28;19951;-70
2023/03/23 12:45:44;;;;;;;;;;;;;;;16.22;56.76;95877.69;5020106;28;19954;-71
2023/03/23 12:48:12;;;;;;;;;;;;;;;16.27;56.35;95882.97;5035439;28;19940;-73
2023/03/23 12:50:48;;;;;;;;;;;;;;;16.31;55.63;95878.72;5035866;28;19941;-68
2023/03/23 12:53:21;;;;;;;;;;;;;;;16.38;56.22;95875.81;5035220;28;20399;-68
2023/03/23 12:55:50;;;;;;;;;;;;;;;16.46;55.86;95871.81;5035908;28;19959;-69